Time;durP1;ratioP1;P1;durP2;ratioP2;P2;SDS_P1;SDS_P2;PMS_P1;PMS_P2;Temp;Humidity;BMP_temperature;BMP_pressure;BME280_temperature;BME280_humidity;BME280_pressure;Samples;Min_cycle;Max_cycle;Signal;HPM_P1;HPM_P2
2023/11/27 00:00:23;;;;;;;6.80;3.72;;;;;;;3.25;100.00;98558.59;5049060;28;20051;-76
2023/11/27 00:02:49;;;;;;;10.52;3.72;;;;;;;3.13;100.00;98538.50;5064865;28;20032;-76
2023/11/27 00:05:14;;;;;;;8.63;3.47;;;;;;;3.15;100.00;98549.06;5046656;28;20135;-75
2023/11/27 00:07:39;;;;;;;14.63;4.10;;;;;;;3.20;100.00;98552.06;5064782;28;20025;-76
2023/11/27 00:10:05;;;;;;;10.98;4.50;;;;;;;3.17;100.00;98555.91;5045098;28;20020;-76
2023/11/27 00:12:30;;;;;;;13.30;4.10;;;;;;;3.11;100.00;98547.69;5049137;28;20028;-75
2023/11/27 00:14:56;;;;;;;6.70;3.13;;;;;;;3.14;100.00;98534.81;5047802;28;20021;-76
2023/11/27 00:17:21;;;;;;;14.43;4.28;;;;;;;3.13;100.00;98543.84;5064177;28;20078;-77
2023/11/27 00:19:46;;;;;;;9.20;4.13;;;;;;;3.11;100.00;98537.84;5047816;28;20025;-77
2023/11/27 00:22:13;;;;;;;9.57;4.60;;;;;;;3.08;100.00;98541.66;5047102;28;20025;-77
2023/11/27 00:24:40;;;;;;;14.13;4.57;;;;;;;3.04;100.00;98531.47;5055873;28;20028;-77
2023/11/27 00:27:06;;;;;;;14.65;4.30;;;;;;;3.15;100.00;98541.03;5058764;28;20024;-77
2023/11/27 00:29:31;;;;;;;13.73;4.75;;;;;;;3.06;100.00;98524.13;5064972;28;20221;-77
2023/11/27 00:31:56;;;;;;;10.13;4.13;;;;;;;3.07;100.00;98526.63;5049891;28;20021;-77
2023/11/27 00:34:22;;;;;;;10.25;4.38;;;;;;;3.00;100.00;98522.09;5063660;28;20035;-77
2023/11/27 00:36:47;;;;;;;12.02;4.20;;;;;;;3.01;100.00;98526.44;5064211;28;20024;-78
2023/11/27 00:39:12;;;;;;;9.73;4.50;;;;;;;3.00;100.00;98522.09;5072095;28;20256;-77
2023/11/27 00:41:38;;;;;;;10.98;4.15;;;;;;;2.91;100.00;98496.34;5046623;28;20071;-77
2023/11/27 00:44:03;;;;;;;12.98;4.40;;;;;;;3.03;100.00;98516.44;5046720;28;20017;-77
2023/11/27 00:46:29;;;;;;;10.90;4.10;;;;;;;2.99;100.00;98509.75;5070788;28;20020;-77
2023/11/27 00:48:55;;;;;;;16.60;4.47;;;;;;;2.93;100.00;98497.03;5058848;28;20024;-77
2023/11/27 00:51:20;;;;;;;14.27;4.80;;;;;;;2.89;100.00;98479.66;5066505;28;20081;-77
2023/11/27 00:53:45;;;;;;;13.57;5.28;;;;;;;2.88;100.00;98486.81;5084294;28;20031;-77
2023/11/27 00:56:12;;;;;;;16.38;6.05;;;;;;;2.72;100.00;98466.22;5050385;28;20032;-77
2023/11/27 00:58:37;;;;;;;12.52;6.03;;;;;;;2.64;100.00;98460.84;5083206;28;20051;-77
2023/11/27 01:01:02;;;;;;;13.15;6.30;;;;;;;2.68;100.00;98485.44;5052900;28;20031;-77
2023/11/27 01:03:27;;;;;;;17.30;6.22;;;;;;;2.69;100.00;98479.91;5067443;28;20029;-77
2023/11/27 01:05:55;;;;;;;15.18;6.47;;;;;;;2.81;100.00;98491.16;5063575;28;20029;-77
2023/11/27 01:08:21;;;;;;;17.55;6.15;;;;;;;2.73;100.00;98472.44;5052879;28;20195;-77
2023/11/27 01:10:46;;;;;;;13.13;5.78;;;;;;;2.68;100.00;98464.06;5063026;28;20054;-78
2023/11/27 01:13:11;;;;;;;15.57;6.47;;;;;;;2.71;100.00;98464.56;5063057;28;20017;-77
2023/11/27 01:15:37;;;;;;;16.73;6.30;;;;;;;2.81;100.00;98478.63;5061459;28;20060;-77
2023/11/27 01:18:02;;;;;;;15.05;6.00;;;;;;;2.73;100.00;98449.22;5056719;28;20059;-77
2023/11/27 01:20:28;;;;;;;9.95;4.70;;;;;;;2.88;100.00;98460.09;5045908;28;20345;-77
2023/11/27 01:22:53;;;;;;;8.13;4.07;;;;;;;2.81;100.00;98451.91;5063595;28;20062;-77
2023/11/27 01:25:19;;;;;;;10.05;4.10;;;;;;;2.85;100.00;98455.06;5063727;28;20024;-77
2023/11/27 01:27:44;;;;;;;7.25;3.60;;;;;;;2.90;100.00;98446.59;5067485;28;20099;-77
2023/11/27 01:30:10;;;;;;;7.63;3.95;;;;;;;2.85;100.00;98436.38;5065465;28;20025;-77
2023/11/27 01:32:35;;;;;;;10.55;4.40;;;;;;;2.70;100.00;98414.81;5051778;28;20021;-77
2023/11/27 01:35:01;;;;;;;12.25;4.45;;;;;;;2.73;100.00;98409.16;5045828;28;20035;-77
2023/11/27 01:37:26;;;;;;;8.45;4.53;;;;;;;2.85;100.00;98423.03;5053655;28;20394;-77
2023/11/27 01:39:51;;;;;;;13.05;4.95;;;;;;;2.70;100.00;98412.16;5042722;28;20334;-77
2023/11/27 01:42:17;;;;;;;13.02;5.10;;;;;;;2.76;100.00;98416.84;5058102;28;20047;-77
2023/11/27 01:44:42;;;;;;;14.20;5.10;;;;;;;2.77;100.00;98404.31;5063317;28;20130;-77
2023/11/27 01:47:08;;;;;;;10.65;4.63;;;;;;;2.77;100.00;98394.44;5064951;28;20017;-77
2023/11/27 01:49:33;;;;;;;10.60;4.15;;;;;;;2.83;100.00;98396.47;5047628;28;20028;-77
2023/11/27 01:52:00;;;;;;;8.35;3.92;;;;;;;2.77;100.00;98389.09;5045307;28;20044;-77
2023/11/27 01:54:27;;;;;;;7.10;3.33;;;;;;;2.74;100.00;98375.25;5063403;28;20032;-77
2023/11/27 01:56:55;;;;;;;8.60;3.42;;;;;;;2.69;100.00;98375.75;5048014;28;20025;-77
2023/11/27 01:59:22;;;;;;;9.15;2.97;;;;;;;2.60;100.00;98366.06;5053587;28;20029;-77
2023/11/27 02:01:47;;;;;;;9.77;4.10;;;;;;;2.53;100.00;98370.38;5064854;28;20054;-77
2023/11/27 02:04:13;;;;;;;7.60;3.70;;;;;;;2.60;100.00;98393.59;5045568;28;20048;-77
2023/11/27 02:06:39;;;;;;;8.18;3.60;;;;;;;2.57;100.00;98388.56;5073286;28;20025;-77
2023/11/27 02:09:05;;;;;;;7.60;3.53;;;;;;;2.54;100.00;98385.38;5061115;28;20041;-77
2023/11/27 02:11:30;;;;;;;7.38;3.13;;;;;;;2.67;100.00;98393.75;5063248;28;20249;-77
2023/11/27 02:13:55;;;;;;;7.63;3.20;;;;;;;2.54;100.00;98366.69;5062902;28;20033;-77
2023/11/27 02:16:22;;;;;;;6.80;3.53;;;;;;;2.50;100.00;98365.34;5068096;28;20041;-77
2023/11/27 02:18:47;;;;;;;11.25;3.53;;;;;;;2.52;100.00;98360.69;5079997;22;20095;-81
2023/11/27 02:21:12;;;;;;;7.68;3.42;;;;;;;2.61;100.00;98368.53;5048021;28;20040;-79
2023/11/27 02:23:38;;;;;;;6.72;3.90;;;;;;;2.63;100.00;98374.56;5047691;28;20195;-80
2023/11/27 02:26:04;;;;;;;9.40;3.90;;;;;;;2.62;100.00;98366.72;5048787;28;20017;-80
2023/11/27 02:28:30;;;;;;;4.95;3.20;;;;;;;2.65;100.00;98366.41;5060211;28;20051;-85
2023/11/27 02:30:55;;;;;;;6.47;3.28;;;;;;;2.58;100.00;98349.34;5067530;28;20056;-79
2023/11/27 02:33:21;;;;;;;6.13;3.50;;;;;;;2.45;100.00;98340.97;5067576;28;20217;-79
2023/11/27 02:35:47;;;;;;;6.32;3.17;;;;;;;2.55;100.00;98363.88;5067569;28;20024;-80
2023/11/27 02:38:12;;;;;;;6.78;3.45;;;;;;;2.67;100.00;98371.56;5067067;28;20033;-79
2023/11/27 02:40:38;;;;;;;8.20;3.83;;;;;;;2.40;100.00;98325.44;5067589;28;20076;-82
2023/11/27 02:43:03;;;;;;;7.45;3.30;;;;;;;2.58;100.00;98363.53;5085771;28;20043;-79
2023/11/27 02:45:29;;;;;;;5.20;3.38;;;;;;;2.46;100.00;98347.97;5067265;28;20017;-79
2023/11/27 02:47:58;;;;;;;10.52;3.58;;;;;;;2.30;100.00;98317.56;5070824;28;20046;-80
2023/11/27 02:50:23;;;;;;;6.13;3.20;;;;;;;2.51;100.00;98351.00;5066396;28;20066;-79
2023/11/27 02:52:49;;;;;;;12.43;3.47;;;;;;;2.56;100.00;98370.03;5066975;28;20317;-79
2023/11/27 02:55:15;;;;;;;6.78;4.00;;;;;;;2.46;100.00;98362.16;5066083;28;20055;-79
2023/11/27 02:57:42;;;;;;;8.77;3.65;;;;;;;2.38;100.00;98346.97;5065881;28;20380;-79
2023/11/27 03:00:08;;;;;;;6.85;3.40;;;;;;;2.41;100.00;98357.31;5083440;28;20025;-79
2023/11/27 03:02:33;;;;;;;7.85;3.78;;;;;;;2.35;100.00;98355.28;5065563;28;20024;-79
2023/11/27 03:04:59;;;;;;;9.10;3.60;;;;;;;2.15;100.00;98319.22;5066303;28;20099;-79
2023/11/27 03:07:24;;;;;;;9.15;3.97;;;;;;;2.24;100.00;98326.22;5066251;28;20344;-82
2023/11/27 03:09:49;;;;;;;9.18;4.07;;;;;;;2.30;100.00;98335.41;5065481;28;20028;-79
2023/11/27 03:12:15;;;;;;;9.98;3.75;;;;;;;2.38;100.00;98340.78;5067542;28;20190;-80
2023/11/27 03:14:40;;;;;;;7.15;3.58;;;;;;;2.32;100.00;98320.91;5070195;28;20339;-81
2023/11/27 03:17:06;;;;;;;6.80;3.22;;;;;;;2.37;100.00;98328.44;5065337;28;20224;-79
2023/11/27 03:19:31;;;;;;;9.23;3.40;;;;;;;2.26;100.00;98305.56;5084023;28;20032;-80
2023/11/27 03:21:56;;;;;;;6.43;3.38;;;;;;;2.35;100.00;98309.91;5087007;28;20226;-79
2023/11/27 03:24:22;;;;;;;6.80;3.50;;;;;;;2.36;100.00;98311.59;5069447;28;20110;-79
2023/11/27 03:26:47;;;;;;;9.20;3.40;;;;;;;2.30;100.00;98309.56;5070291;28;20020;-79
2023/11/27 03:29:13;;;;;;;6.30;3.35;;;;;;;2.36;100.00;98300.91;5087169;28;20079;-79
2023/11/27 03:31:38;;;;;;;5.50;2.92;;;;;;;2.24;100.00;98288.03;5070108;28;20039;-80
2023/11/27 03:34:04;;;;;;;7.13;3.00;;;;;;;2.30;100.00;98293.53;5068871;28;20043;-79
2023/11/27 03:36:29;;;;;;;5.97;2.78;;;;;;;2.32;100.00;98296.88;5072576;28;20025;-80
2023/11/27 03:38:54;;;;;;;5.60;2.70;;;;;;;2.21;100.00;98273.19;5091232;28;20024;-81
2023/11/27 03:41:21;;;;;;;6.97;2.72;;;;;;;2.37;100.00;98305.25;5074135;28;20062;-80
2023/11/27 03:43:47;;;;;;;5.20;2.88;;;;;;;2.40;100.00;98314.75;5074154;28;20096;-79
2023/11/27 03:46:13;;;;;;;6.28;3.45;;;;;;;2.32;100.00;98288.06;5071713;28;20024;-81
2023/11/27 03:48:38;;;;;;;4.53;2.72;;;;;;;2.36;100.00;98279.56;5073333;28;20032;-81
2023/11/27 03:51:05;;;;;;;8.70;2.47;;;;;;;2.40;100.00;98296.91;5073526;28;20020;-82
2023/11/27 03:53:30;;;;;;;4.55;2.90;;;;;;;2.41;100.00;98277.22;5073656;28;20034;-80
2023/11/27 03:55:55;;;;;;;6.78;2.80;;;;;;;2.32;100.00;98278.19;5091187;28;20054;-81
2023/11/27 03:58:22;;;;;;;6.50;3.10;;;;;;;2.30;100.00;98269.50;5073213;28;20024;-80
2023/11/27 04:00:47;;;;;;;4.38;2.67;;;;;;;2.30;100.00;98271.34;5073070;28;20024;-80
2023/11/27 04:03:12;;;;;;;5.90;2.95;;;;;;;2.30;100.00;98274.03;5073229;28;20335;-82
2023/11/27 04:05:39;;;;;;;5.10;2.80;;;;;;;2.36;100.00;98279.56;5089828;28;20017;-79
2023/11/27 04:08:04;;;;;;;6.72;3.05;;;;;;;2.31;100.00;98268.53;5069681;28;20020;-80
2023/11/27 04:10:30;;;;;;;5.40;2.60;;;;;;;2.21;100.00;98265.19;5069075;28;20024;-81
2023/11/27 04:12:55;;;;;;;6.97;3.10;;;;;;;2.19;100.00;98261.84;5069451;28;20039;-79
2023/11/27 04:15:20;;;;;;;5.97;2.80;;;;;;;2.12;100.00;98244.78;5069303;28;20044;-79
2023/11/27 04:17:46;;;;;;;4.65;2.60;;;;;;;2.26;100.00;98265.53;5087594;28;20032;-80
2023/11/27 04:20:11;;;;;;;8.65;2.88;;;;;;;2.16;100.00;98257.66;5071225;28;20256;-80
2023/11/27 04:22:38;;;;;;;6.25;2.58;;;;;;;2.11;100.00;98249.31;5072174;28;20024;-79
2023/11/27 04:25:04;;;;;;;9.20;3.25;;;;;;;2.02;100.00;98238.75;5071354;28;20020;-79
2023/11/27 04:27:30;;;;;;;6.70;3.13;;;;;;;2.06;100.00;98251.63;5072612;28;20024;-80
2023/11/27 04:29:56;;;;;;;10.80;3.92;;;;;;;2.07;100.00;98241.78;5071618;28;20017;-82
2023/11/27 04:32:21;;;;;;;7.78;3.42;;;;;;;2.08;100.00;98254.13;5067817;28;20024;-79
2023/11/27 04:34:47;;;;;;;4.95;2.97;;;;;;;2.00;100.00;98241.63;5068404;28;20021;-79
2023/11/27 04:37:14;;;;;;;6.05;2.80;;;;;;;2.10;100.00;98258.31;5068514;28;20444;-80
2023/11/27 04:39:42;;;;;;;6.50;2.90;;;;;;;2.16;100.00;98259.50;5072420;28;20017;-80
2023/11/27 04:42:09;;;;;;;6.93;3.45;;;;;;;2.01;100.00;98242.44;5068649;28;20016;-80
2023/11/27 04:44:35;;;;;;;6.57;2.80;;;;;;;2.02;100.00;98231.63;5072304;28;20016;-80
2023/11/27 04:47:00;;;;;;;6.50;2.95;;;;;;;2.02;100.00;98246.75;5070637;28;20096;-82
2023/11/27 04:49:26;;;;;;;5.43;3.13;;;;;;;2.00;100.00;98244.28;5070904;28;20281;-79
2023/11/27 04:51:51;;;;;;;5.78;2.78;;;;;;;1.87;100.00;98218.06;5068357;28;20325;-80
2023/11/27 04:54:16;;;;;;;10.88;3.13;;;;;;;1.92;100.00;98210.41;5072428;28;20028;-80
2023/11/27 04:56:42;;;;;;;6.78;2.92;;;;;;;2.15;100.00;98236.50;5071205;28;20020;-80
2023/11/27 04:59:07;;;;;;;9.82;2.75;;;;;;;2.06;100.00;98221.44;5070170;28;20096;-80
2023/11/27 05:01:32;;;;;;;3.42;2.10;;;;;;;1.91;100.00;98198.09;5071899;28;20054;-81
2023/11/27 05:03:58;;;;;;;7.07;2.83;;;;;;;1.91;100.00;98205.22;5087605;28;20028;-79
2023/11/27 05:06:23;;;;;;;5.63;2.83;;;;;;;1.99;100.00;98223.91;5069395;28;20100;-79
2023/11/27 05:08:48;;;;;;;3.95;2.25;;;;;;;1.91;100.00;98214.09;5069795;28;20025;-82
2023/11/27 05:11:21;;;;;;;6.68;2.58;;;;;;;1.87;100.00;98196.72;5068087;28;20032;-80
2023/11/27 05:13:51;;;;;;;6.75;2.72;;;;;;;1.79;100.00;98170.03;5069738;28;20028;-79
2023/11/27 05:16:17;;;;;;;8.23;3.28;;;;;;;1.82;100.00;98180.38;5069882;28;20321;-78
2023/11/27 05:18:43;;;;;;;6.25;2.78;;;;;;;1.79;100.00;98178.03;5072056;28;20051;-79
2023/11/27 05:21:12;;;;;;;5.55;2.85;;;;;;;1.82;100.00;98175.03;5072456;28;20024;-79
2023/11/27 05:23:44;;;;;;;7.78;2.95;;;;;;;1.72;100.00;98161.00;5075828;28;20027;-84
2023/11/27 05:26:10;;;;;;;4.97;2.38;;;;;;;1.88;100.00;98186.88;5080911;28;20028;-84
2023/11/27 05:28:37;;;;;;;7.13;2.83;;;;;;;1.90;100.00;98171.56;5081035;28;20257;-82
2023/11/27 05:31:02;;;;;;;5.50;3.00;;;;;;;1.87;100.00;98180.72;5076396;28;20100;-79
2023/11/27 05:33:28;;;;;;;7.32;3.15;;;;;;;1.92;100.00;98181.06;5068880;28;20044;-80
2023/11/27 05:35:53;;;;;;;4.65;2.85;;;;;;;1.91;100.00;98173.22;5067265;28;20016;-83
2023/11/27 05:38:19;;;;;;;6.30;2.97;;;;;;;1.78;100.00;98147.00;5068140;28;20020;-80
2023/11/27 05:40:44;;;;;;;6.80;3.08;;;;;;;1.84;100.00;98165.06;5070182;28;20271;-80
2023/11/27 05:43:11;;;;;;;7.38;2.65;;;;;;;1.93;100.00;98163.22;5070426;28;20048;-81
2023/11/27 05:45:37;;;;;;;7.40;3.08;;;;;;;1.87;100.00;98159.38;5070018;28;20289;-79
2023/11/27 05:48:07;;;;;;;7.57;3.38;;;;;;;1.82;100.00;98145.72;5070973;28;20016;-79
2023/11/27 05:50:33;;;;;;;8.70;4.07;;;;;;;1.96;100.00;98168.22;5066109;28;20020;-77
2023/11/27 05:52:58;;;;;;;10.20;4.68;;;;;;;1.90;100.00;98148.38;5067158;28;20040;-79
2023/11/27 05:55:24;;;;;;;8.63;3.70;;;;;;;1.91;100.00;98155.41;5066281;28;20021;-79
2023/11/27 05:57:49;;;;;;;8.00;4.05;;;;;;;1.73;100.00;98134.19;5066190;28;20078;-81
2023/11/27 06:00:15;;;;;;;10.20;4.15;;;;;;;1.66;100.00;98117.19;5066858;28;20016;-79
2023/11/27 06:02:41;;;;;;;10.77;4.90;;;;;;;1.86;100.00;98143.53;5084562;28;20020;-79
2023/11/27 06:05:07;;;;;;;13.65;4.90;;;;;;;1.87;100.00;98159.38;5066396;28;20020;-76
2023/11/27 06:07:33;;;;;;;12.20;4.13;;;;;;;1.78;100.00;98141.69;5066040;28;20283;-80
2023/11/27 06:10:04;;;;;;;5.38;3.28;;;;;;;1.88;100.00;98158.38;5066999;28;20070;-79
2023/11/27 06:12:29;;;;;;;6.05;3.85;;;;;;;1.74;100.00;98140.34;5047504;28;20108;-79
2023/11/27 06:14:54;;;;;;;8.77;4.03;;;;;;;1.74;100.00;98143.03;5076650;28;20021;-80
2023/11/27 06:17:20;;;;;;;7.53;3.65;;;;;;;1.43;100.00;98098.28;5060840;28;20032;-79
2023/11/27 06:19:46;;;;;;;16.48;3.65;;;;;;;1.28;100.00;98070.59;5069866;28;20100;-81
2023/11/27 06:22:11;;;;;;;11.73;4.22;;;;;;;1.83;100.00;98155.34;5071261;28;20082;-87
2023/11/27 06:24:37;;;;;;;11.95;3.65;;;;;;;1.53;100.00;98095.50;5063509;28;20051;-76
2023/11/27 06:27:02;;;;;;;8.50;3.25;;;;;;;1.68;100.00;98122.34;5079542;28;20044;-79
2023/11/27 06:29:27;;;;;;;6.35;3.20;;;;;;;1.71;100.00;98130.84;5066747;28;20344;-77
2023/11/27 06:31:53;;;;;;;9.15;3.35;;;;;;;1.64;100.00;98119.16;5063020;28;20023;-76
2023/11/27 06:34:18;;;;;;;9.98;3.63;;;;;;;1.74;100.00;98122.53;5057631;28;20027;-76
2023/11/27 06:36:44;;;;;;;8.73;3.78;;;;;;;1.79;100.00;98126.53;5047381;28;20031;-75
2023/11/27 06:39:09;;;;;;;6.82;3.40;;;;;;;1.77;100.00;98116.03;5083728;28;20020;-77
2023/11/27 06:41:34;;;;;;;8.27;3.42;;;;;;;1.75;100.00;98118.00;5079102;28;20265;-79
2023/11/27 06:44:02;;;;;;;7.68;3.42;;;;;;;1.79;100.00;98114.03;5064902;28;20518;-79
2023/11/27 06:46:28;;;;;;;6.45;3.17;;;;;;;1.88;100.00;98129.03;5076554;28;20039;-77
2023/11/27 06:48:53;;;;;;;7.63;3.60;;;;;;;1.81;100.00;98106.72;5064528;28;20021;-74
2023/11/27 06:51:19;;;;;;;10.43;3.10;;;;;;;1.89;100.00;98108.56;5082375;28;20017;-74
2023/11/27 06:53:44;;;;;;;4.70;3.00;;;;;;;1.89;100.00;98093.38;5062613;28;20044;-75
2023/11/27 06:56:10;;;;;;;6.13;2.92;;;;;;;1.91;100.00;98086.06;5082062;28;20023;-75
2023/11/27 06:58:36;;;;;;;5.05;2.70;;;;;;;1.93;100.00;98091.19;5078058;28;20020;-76
2023/11/27 07:01:01;;;;;;;6.57;2.70;;;;;;;2.04;100.00;98090.03;5069976;28;20036;-81
2023/11/27 07:03:27;;;;;;;5.05;2.28;;;;;;;2.12;100.00;98079.34;5070411;28;20028;-78
2023/11/27 07:05:53;;;;;;;4.75;2.58;;;;;;;2.10;100.00;98078.72;5069067;28;20051;-80
2023/11/27 07:08:18;;;;;;;5.68;2.63;;;;;;;2.15;100.00;98073.72;5090076;28;20055;-80
2023/11/27 07:10:43;;;;;;;6.05;2.67;;;;;;;2.18;100.00;98078.72;5069201;28;20025;-78
2023/11/27 07:13:09;;;;;;;5.88;2.40;;;;;;;2.27;100.00;98076.84;5065964;28;20016;-76
2023/11/27 07:15:34;;;;;;;5.00;2.20;;;;;;;2.08;100.00;98032.69;5084601;28;20043;-79
2023/11/27 07:18:00;;;;;;;10.73;2.80;;;;;;;2.31;100.00;98067.53;5060220;28;20031;-76
2023/11/27 07:20:25;;;;;;;7.80;2.40;;;;;;;2.33;100.00;98061.00;5066295;28;20356;-75
2023/11/27 07:22:51;;;;;;;5.63;2.50;;;;;;;2.39;100.00;98052.31;5087268;28;20033;-79
2023/11/27 07:25:16;;;;;;;5.72;2.60;;;;;;;2.46;100.00;98040.94;5056987;28;20025;-74
2023/11/27 07:27:45;;;;;;;5.35;2.22;;;;;;;2.56;100.00;98053.09;5072596;28;20021;-75
2023/11/27 07:30:11;;;;;;;6.22;2.50;;;;;;;2.56;100.00;98049.59;5084312;28;20035;-75
2023/11/27 07:32:37;;;;;;;7.78;2.72;;;;;;;2.47;100.00;98035.44;5062871;28;20025;-75
2023/11/27 07:35:02;;;;;;;4.53;2.63;;;;;;;2.57;100.00;98041.44;5066016;28;20419;-78
2023/11/27 07:37:28;;;;;;;9.23;2.53;;;;;;;2.57;100.00;98028.09;5085538;28;20048;-75
2023/11/27 07:39:53;;;;;;;5.90;2.50;;;;;;;2.53;100.00;98007.22;5085148;28;20067;-75
2023/11/27 07:42:19;;;;;;;8.57;2.22;;;;;;;2.70;100.00;98024.88;5071810;28;20084;-75
2023/11/27 07:44:44;;;;;;;4.60;2.38;;;;;;;2.72;100.00;98016.66;5073916;28;20016;-81
2023/11/27 07:47:10;;;;;;;4.65;2.28;;;;;;;2.80;100.00;98012.16;5072360;28;20031;-76
2023/11/27 07:49:35;;;;;;;8.07;2.20;;;;;;;2.85;100.00;98015.09;5084481;28;20343;-76
2023/11/27 07:52:01;;;;;;;3.97;2.30;;;;;;;2.86;100.00;97997.25;5055699;28;20070;-76
2023/11/27 07:54:27;;;;;;;3.70;2.05;;;;;;;2.77;100.00;97998.28;5084732;28;20024;-76
2023/11/27 07:56:53;;;;;;;4.03;2.67;;;;;;;2.76;100.00;97997.47;5087070;28;20029;-76
2023/11/27 07:59:18;;;;;;;4.63;2.55;;;;;;;2.88;100.00;98005.06;5060764;28;20028;-77
2023/11/27 08:01:44;;;;;;;5.35;2.78;;;;;;;2.88;100.00;98002.41;5085095;28;20029;-77
2023/11/27 08:04:11;;;;;;;7.07;3.13;;;;;;;2.71;100.00;97958.94;5062103;28;20020;-77
2023/11/27 08:06:36;;;;;;;8.38;4.10;;;;;;;2.87;100.00;97976.72;5053236;28;20017;-76
2023/11/27 08:09:02;;;;;;;9.10;3.50;;;;;;;2.82;100.00;97954.00;5068176;28;20348;-76
2023/11/27 08:11:32;;;;;;;9.18;3.35;;;;;;;2.94;100.00;97973.16;5079412;28;20024;-76
2023/11/27 08:13:58;;;;;;;9.05;3.67;;;;;;;3.01;100.00;97978.63;5078996;28;20020;-76
2023/11/27 08:16:23;;;;;;;6.55;3.50;;;;;;;3.05;100.00;97980.78;5070444;28;20031;-75
2023/11/27 08:18:49;;;;;;;9.57;2.80;;;;;;;3.05;100.00;97985.31;5052543;28;20024;-76
2023/11/27 08:21:14;;;;;;;10.05;3.80;;;;;;;3.01;100.00;97986.63;5076343;22;20039;-51
2023/11/27 08:23:42;;;;;;;9.30;4.38;;;;;;;3.05;100.00;97991.47;5057280;28;20403;-51
2023/11/27 08:26:08;;;;;;;10.07;3.80;;;;;;;3.13;100.00;97981.75;5073140;28;20021;-50
2023/11/27 08:28:33;;;;;;;8.85;2.95;;;;;;;3.12;100.00;97978.25;5062535;28;20035;-55
2023/11/27 08:30:59;;;;;;;14.70;4.63;;;;;;;3.09;100.00;97975.91;5052928;28;20464;-52
2023/11/27 08:33:27;;;;;;;18.63;5.82;;;;;;;3.16;100.00;97965.34;5066350;28;20063;-52
2023/11/27 08:35:53;;;;;;;8.25;2.95;;;;;;;3.22;100.00;97965.50;5073232;28;20082;-51
2023/11/27 08:38:19;;;;;;;10.95;3.30;;;;;;;3.18;100.00;97952.66;5068316;28;20032;-52
2023/11/27 08:40:44;;;;;;;8.50;3.30;;;;;;;3.34;100.00;97951.72;5067284;28;20479;-51
2023/11/27 08:43:10;;;;;;;7.13;3.03;;;;;;;3.42;100.00;97948.97;5067750;28;20039;-51
2023/11/27 08:45:35;;;;;;;4.47;2.72;;;;;;;3.45;100.00;97944.09;5074541;28;20029;-52
2023/11/27 08:48:03;;;;;;;7.22;2.72;;;;;;;3.55;100.00;97943.84;5064391;28;20029;-51
2023/11/27 08:50:32;;;;;;;11.07;2.90;;;;;;;3.57;100.00;97947.19;5063507;28;20036;-50
2023/11/27 08:52:59;;;;;;;14.05;2.75;;;;;;;3.51;100.00;97943.38;5067347;28;20463;-52
2023/11/27 08:55:28;;;;;;;11.05;3.03;;;;;;;3.55;100.00;97933.16;5060576;28;20039;-50
2023/11/27 08:57:55;;;;;;;8.80;3.55;;;;;;;3.63;100.00;97932.25;5054187;28;20032;-51
2023/11/27 09:00:20;;;;;;;8.70;3.85;;;;;;;3.57;100.00;97924.97;5062542;28;20024;-51
2023/11/27 09:02:48;;;;;;;7.60;3.67;;;;;;;3.59;100.00;97930.94;5062421;28;20024;-51
2023/11/27 09:05:14;;;;;;;6.40;3.08;;;;;;;3.57;100.00;97909.75;5061101;28;20017;-51
2023/11/27 09:07:39;;;;;;;5.90;3.10;;;;;;;3.47;100.00;97909.97;5063915;28;20509;-51
2023/11/27 09:10:06;;;;;;;7.82;3.35;;;;;;;3.67;100.00;97915.66;5054042;28;20036;-51
2023/11/27 09:12:32;;;;;;;8.27;3.03;;;;;;;3.85;100.00;97903.78;5051587;28;20488;-51
2023/11/27 09:14:58;;;;;;;8.68;2.97;;;;;;;3.85;100.00;97907.31;5056204;28;20036;-51
2023/11/27 09:17:23;;;;;;;10.18;3.70;;;;;;;3.87;100.00;97899.06;5067095;28;20031;-52
2023/11/27 09:19:49;;;;;;;12.27;4.32;;;;;;;4.00;100.00;97896.59;5054323;28;20029;-51
2023/11/27 09:22:15;;;;;;;11.20;3.85;;;;;;;4.04;100.00;97900.56;5055022;28;20032;-51
2023/11/27 09:24:41;;;;;;;7.13;3.10;;;;;;;3.99;100.00;97891.44;5055955;28;20081;-50
2023/11/27 09:27:06;;;;;;;9.38;2.78;;;;;;;3.92;100.00;97885.97;5055311;28;20021;-51
2023/11/27 09:29:33;;;;;;;5.10;2.50;;;;;;;3.86;100.00;97882.19;5050873;28;20025;-51
2023/11/27 09:31:59;;;;;;;8.40;2.60;;;;;;;4.11;100.00;97885.44;5050281;28;20437;-50
2023/11/27 09:34:29;;;;;;;5.85;2.88;;;;;;;4.23;100.00;97885.81;5061023;28;20024;-51
2023/11/27 09:36:54;;;;;;;;;;;;;;;4.32;100.00;97870.47;5055500;28;20102;-51
2023/11/27 09:39:19;;;;;;;6.68;2.55;;;;;;;4.42;100.00;97876.34;5052442;28;19980;-50
2023/11/27 09:41:45;;;;;;;6.40;2.83;;;;;;;4.42;100.00;97859.47;5062806;28;20032;-51
2023/11/27 09:44:13;;;;;;;4.65;2.20;;;;;;;4.51;100.00;97863.72;5051189;28;20036;-50
2023/11/27 09:46:41;;;;;;;6.10;2.65;;;;;;;4.55;100.00;97857.75;5048080;28;20024;-50
2023/11/27 09:49:10;;;;;;;5.90;2.40;;;;;;;4.56;100.00;97848.72;5058802;28;20024;-50
2023/11/27 09:51:37;;;;;;;4.88;2.55;;;;;;;4.68;100.00;97837.50;5061190;28;20427;-50
2023/11/27 09:54:03;;;;;;;7.30;3.03;;;;;;;4.59;100.00;97840.31;5055417;28;20460;-51
2023/11/27 09:56:32;;;;;;;7.05;2.58;;;;;;;4.88;100.00;97827.84;5060005;28;20078;-51
2023/11/27 09:59:00;;;;;;;6.25;2.28;;;;;;;5.01;100.00;97819.91;5052900;28;20031;-50
2023/11/27 10:01:28;;;;;;;5.30;2.45;;;;;;;5.13;100.00;97808.66;5048167;28;20024;-51
2023/11/27 10:04:01;;;;;;;8.32;3.35;;;;;;;5.14;100.00;97810.34;5067775;28;20085;-51
2023/11/27 10:06:41;;;;;;;5.85;2.63;;;;;;;4.91;100.00;97795.28;5053507;28;20054;-50
2023/11/27 10:09:13;;;;;;;6.78;2.65;;;;;;;5.11;100.00;97794.63;5059507;28;20112;-52
2023/11/27 10:11:41;;;;;;;8.30;2.60;;;;;;;5.14;100.00;97786.22;5061691;28;20518;-52
2023/11/27 10:14:10;;;;;;;5.55;2.53;;;;;;;5.22;100.00;97772.66;5045692;28;20032;-51
2023/11/27 10:16:36;;;;;;;6.63;2.53;;;;;;;5.49;100.00;97771.81;5052553;28;20029;-51
2023/11/27 10:19:06;;;;;;;8.13;2.97;;;;;;;5.69;100.00;97753.16;5065758;28;20029;-51
2023/11/27 10:21:36;;;;;;;4.57;2.50;;;;;;;5.69;100.00;97752.34;5041986;28;20030;-53
2023/11/27 10:24:11;;;;;;;6.88;2.45;;;;;;;5.51;100.00;97752.03;5062767;28;20028;-53
2023/11/27 10:26:40;;;;;;;9.48;3.42;;;;;;;5.72;100.00;97741.22;5049258;28;20356;-52
2023/11/27 10:29:06;;;;;;;5.13;1.88;;;;;;;5.52;100.00;97724.16;5057797;28;20031;-52
2023/11/27 10:31:40;;;;;;;7.75;3.05;;;;;;;5.59;100.00;97706.25;5063298;28;20120;-52
2023/11/27 10:34:06;;;;;;;7.55;3.20;;;;;;;5.68;100.00;97721.97;5059702;28;20024;-60
2023/11/27 10:36:35;;;;;;;6.60;2.17;;;;;;;5.75;100.00;97705.91;5069842;28;20032;-60
2023/11/27 10:39:00;;;;;;;9.65;2.50;;;;;;;5.66;100.00;97707.13;5059383;28;20029;-60
2023/11/27 10:41:29;;;;;;;5.18;2.08;;;;;;;5.87;100.00;97687.41;5074962;28;20540;-61
2023/11/27 10:43:54;;;;;;;5.03;2.23;;;;;;;5.85;100.00;97694.81;5066404;28;20036;-60
2023/11/27 10:46:21;;;;;;;5.05;2.47;;;;;;;5.98;100.00;97669.91;5068386;28;20275;-60
2023/11/27 10:48:48;;;;;;;6.70;2.38;;;;;;;5.96;100.00;97664.72;5061684;28;20028;-60
2023/11/27 10:51:16;;;;;;;4.50;2.10;;;;;;;5.84;100.00;97679.72;5058553;28;20032;-52
2023/11/27 10:53:49;;;;;;;5.97;2.22;;;;;;;5.66;100.00;97666.88;5054483;28;20028;-52
2023/11/27 10:56:14;;;;;;;4.85;2.13;;;;;;;5.68;100.00;97656.75;5060545;28;20025;-51
2023/11/27 10:58:41;;;;;;;5.05;2.10;;;;;;;5.87;100.00;97639.09;5067460;28;20024;-51
2023/11/27 11:01:08;;;;;;;5.97;2.30;;;;;;;5.88;100.00;97640.72;5061022;28;20032;-51
2023/11/27 11:03:37;;;;;;;5.93;2.20;;;;;;;5.84;100.00;97629.59;5057660;28;20360;-52
2023/11/27 11:06:06;;;;;;;6.10;2.05;;;;;;;5.92;100.00;97607.06;5055412;28;20043;-52
2023/11/27 11:08:32;;;;;;;;;;;;;;;6.18;100.00;97610.88;5052596;28;21612;-51
2023/11/27 11:10:59;;;;;;;5.15;2.05;;;;;;;6.26;100.00;97606.16;5080148;28;20284;-51
2023/11/27 11:13:25;;;;;;;8.27;2.33;;;;;;;6.40;100.00;97606.16;5062596;28;20119;-52
2023/11/27 11:16:20;;;;;;;3.70;1.75;;;;;;;6.12;100.00;97604.47;5066377;28;20024;-53
2023/11/27 11:18:57;;;;;;;4.70;1.80;;;;;;;6.53;100.00;97579.28;5065269;28;20032;-53
2023/11/27 11:22:10;;;;;;;4.05;1.77;;;;;;;6.71;100.00;97581.34;5065515;28;20055;-53
2023/11/27 11:24:52;;;;;;;4.07;2.10;;;;;;;6.64;100.00;97570.59;5046116;28;20041;-53
2023/11/27 11:27:28;;;;;;;5.05;1.70;;;;;;;6.51;100.00;97551.78;5057433;28;20028;-52